createdAt,value
2019-01-03T00:02:28.018Z,98830.20
2019-01-03T00:05:23.796Z,98831.62
2019-01-03T00:08:26.987Z,98835.37
2019-01-03T00:11:17.370Z,98837.41
2019-01-03T00:14:19.571Z,98839.46
2019-01-03T00:17:21.290Z,98840.52
2019-01-03T00:20:11.872Z,98840.74
2019-01-03T00:23:00.630Z,98852.09
2019-01-03T00:25:48.615Z,98848.92
2019-01-03T00:28:47.913Z,98847.94
2019-01-03T00:31:41.273Z,98850.05
2019-01-03T00:34:34.596Z,98847.69
2019-01-03T00:37:36.503Z,98849.13
2019-01-03T00:40:17.237Z,98852.48
2019-01-03T00:43:10.552Z,98851.54
2019-01-03T00:46:06.138Z,98854.09
2019-01-03T00:48:54.830Z,98857.78
2019-01-03T00:51:50.904Z,98866.02
2019-01-03T00:54:39.537Z,98868.73
2019-01-03T00:57:28.243Z,98876.92
2019-01-03T01:00:19.234Z,98877.39
2019-01-03T01:03:08.239Z,98876.77
2019-01-03T01:06:07.491Z,98871.69
2019-01-03T01:09:03.380Z,98885.14
2019-01-03T01:11:59.589Z,98882.05
2019-01-03T01:14:55.020Z,98885.79
2019-01-03T01:18:02.939Z,98885.17
2019-01-03T01:20:58.837Z,98883.86
2019-01-03T01:23:47.573Z,98882.97
2019-01-03T01:26:36.241Z,98885.69
2019-01-03T01:29:32.637Z,98892.31
2019-01-03T01:32:30.298Z,98888.57
2019-01-03T01:35:38.518Z,98889.17
2019-01-03T01:38:31.919Z,98890.55
2019-01-03T01:41:27.598Z,98892.06
2019-01-03T01:44:16.050Z,98888.72
2019-01-03T01:47:15.003Z,98891.33
2019-01-03T01:50:08.121Z,98891.97
2019-01-03T01:52:51.996Z,98892.36
2019-01-03T01:55:57.035Z,98884.05
2019-01-03T01:58:45.887Z,98886.46
2019-01-03T02:01:34.845Z,98881.23
2019-01-03T02:04:23.347Z,98884.54
2019-01-03T02:07:13.425Z,98885.08
2019-01-03T02:10:06.515Z,98886.09
2019-01-03T02:13:08.477Z,98887.02
2019-01-03T02:15:57.169Z,98885.68
2019-01-03T02:18:45.495Z,98883.80
2019-01-03T02:21:34.165Z,98880.13
2019-01-03T02:24:29.966Z,98880.01
2019-01-03T02:27:18.393Z,98877.53
2019-01-03T02:30:06.821Z,98871.86
2019-01-03T02:32:57.129Z,98883.05
2019-01-03T02:35:45.390Z,98876.06
2019-01-03T02:38:38.496Z,98881.52
2019-01-03T02:41:27.196Z,98886.86
2019-01-03T02:44:23.297Z,98882.88
2019-01-03T02:47:22.269Z,98886.67
2019-01-03T02:50:15.585Z,98885.62
2019-01-03T02:53:14.883Z,98881.09
2019-01-03T02:56:03.881Z,98884.44
2019-01-03T02:58:52.924Z,98883.06
2019-01-03T03:01:41.824Z,98885.64
2019-01-03T03:04:49.525Z,98891.73
2019-01-03T03:07:44.027Z,98883.89
2019-01-03T03:10:32.998Z,98878.59
2019-01-03T03:13:40.942Z,98880.78
2019-01-03T03:16:40.282Z,98886.98
2019-01-03T03:19:29.728Z,98888.70
2019-01-03T03:22:19.782Z,98885.59
2019-01-03T03:25:08.146Z,98887.79
2019-01-03T03:28:06.932Z,98892.30
2019-01-03T03:30:55.622Z,98898.64
2019-01-03T03:34:00.823Z,98893.26
2019-01-03T03:36:49.551Z,98894.32
2019-01-03T03:39:45.980Z,98890.88
2019-01-03T03:42:38.763Z,98891.69
2019-01-03T03:45:34.308Z,98884.82
2019-01-03T03:48:29.939Z,98881.80
2019-01-03T03:51:23.362Z,98881.55
2019-01-03T03:54:12.150Z,98880.41
2019-01-03T03:57:05.327Z,98886.72
2019-01-03T04:00:13.060Z,98875.30
2019-01-03T04:03:06.522Z,98876.14
2019-01-03T04:06:08.381Z,98876.73
2019-01-03T04:08:58.701Z,98874.91
2019-01-03T04:11:47.441Z,98878.05
2019-01-03T04:14:36.731Z,98873.91
2019-01-03T04:17:25.428Z,98884.11
2019-01-03T04:20:08.331Z,98879.78
2019-01-03T04:23:08.277Z,98877.45
2019-01-03T04:26:13.725Z,98882.73
2019-01-03T04:29:02.682Z,98877.36
2019-01-03T04:31:51.194Z,98882.01
2019-01-03T04:34:40.165Z,98882.51
2019-01-03T04:37:45.684Z,98880.35
2019-01-03T04:40:41.901Z,98882.64
2019-01-03T04:43:47.385Z,98879.35
2019-01-03T04:46:38.437Z,98879.34
2019-01-03T04:49:26.507Z,98885.73
2019-01-03T04:52:18.449Z,98880.99
2019-01-03T04:55:12.095Z,98884.35
2019-01-03T04:58:00.825Z,98877.96
2019-01-03T05:00:49.897Z,98879.32
2019-01-03T05:03:43.412Z,98872.41
2019-01-03T05:06:32.286Z,98875.19
2019-01-03T05:09:20.915Z,98882.48
2019-01-03T05:12:07.315Z,98879.63
2019-01-03T05:15:12.510Z,98886.14
2019-01-03T05:18:01.574Z,98890.06
2019-01-03T05:20:50.319Z,98883.33
2019-01-03T05:23:39.264Z,98890.68
2019-01-03T05:26:24.609Z,98886.47
2019-01-03T05:29:20.797Z,98886.13
2019-01-03T05:32:13.617Z,98882.74
2019-01-03T05:35:15.582Z,98880.06
2019-01-03T05:38:14.539Z,98880.55
2019-01-03T05:41:07.643Z,98878.78
2019-01-03T05:43:57.664Z,98871.70
2019-01-03T05:47:00.154Z,98875.08
2019-01-03T05:49:53.307Z,98878.95
2019-01-03T05:52:43.471Z,98887.05
2019-01-03T05:55:40.575Z,98898.73
2019-01-03T05:58:33.717Z,98899.56
2019-01-03T06:01:26.536Z,98905.70
2019-01-03T06:04:31.559Z,98910.81
2019-01-03T06:07:37.031Z,98916.69
2019-01-03T06:10:27.167Z,98922.00
2019-01-03T06:13:15.610Z,98920.92
2019-01-03T06:16:10.452Z,98918.09
2019-01-03T06:19:00.999Z,98918.91
2019-01-03T06:21:51.515Z,98920.78
2019-01-03T06:24:40.047Z,98924.70
2019-01-03T06:27:28.969Z,98911.53
2019-01-03T06:30:19.005Z,98912.48
2019-01-03T06:33:13.034Z,98912.23
2019-01-03T06:36:14.979Z,98917.55
2019-01-03T06:39:03.533Z,98924.40
2019-01-03T06:42:08.255Z,98942.35
2019-01-03T06:44:56.999Z,98948.11
2019-01-03T06:47:56.522Z,98939.91
2019-01-03T06:50:52.139Z,98947.36
2019-01-03T06:53:40.858Z,98947.19
2019-01-03T06:56:36.963Z,98947.03
2019-01-03T06:59:24.654Z,98953.14
2019-01-03T07:02:17.480Z,98953.70
2019-01-03T07:05:06.378Z,98955.90
2019-01-03T07:07:55.172Z,98955.38
2019-01-03T07:10:54.075Z,98955.58
2019-01-03T07:13:43.073Z,98955.48
2019-01-03T07:16:28.686Z,98967.86
2019-01-03T07:19:19.113Z,98970.58
2019-01-03T07:22:18.803Z,98980.45
2019-01-03T07:25:14.981Z,98978.64
2019-01-03T07:28:03.705Z,98980.23
2019-01-03T07:31:08.191Z,98992.75
2019-01-03T07:34:07.143Z,98989.11
2019-01-03T07:36:52.057Z,98986.27
2019-01-03T07:39:42.082Z,98987.97
2019-01-03T07:42:44.020Z,98994.52
2019-01-03T07:45:32.883Z,99011.50
2019-01-03T07:48:41.179Z,99008.45
2019-01-03T07:51:42.819Z,99011.34
2019-01-03T07:54:31.684Z,98996.59
2019-01-03T07:57:25.342Z,99005.83
2019-01-03T08:00:22.130Z,99004.52
2019-01-03T08:03:12.690Z,99000.50
2019-01-03T08:05:53.180Z,98994.61
2019-01-03T08:08:42.076Z,98994.37
2019-01-03T08:11:38.482Z,98993.84
2019-01-03T08:14:28.264Z,98994.68
2019-01-03T08:17:19.345Z,98994.53
2019-01-03T08:20:08.308Z,98983.56
2019-01-03T08:22:57.254Z,98981.45
2019-01-03T08:25:47.553Z,98978.95
2019-01-03T08:28:36.619Z,98979.13
2019-01-03T08:31:26.643Z,98978.34
2019-01-03T08:34:22.737Z,98979.05
2019-01-03T08:37:21.985Z,98974.04
2019-01-03T08:40:14.827Z,98980.36
2019-01-03T08:43:13.547Z,98976.00
2019-01-03T08:46:06.613Z,98980.16
2019-01-03T08:49:06.488Z,98983.06
2019-01-03T08:51:54.730Z,98982.85
2019-01-03T08:54:47.300Z,98982.91
2019-01-03T08:57:38.173Z,98981.05
2019-01-03T09:00:28.408Z,98982.66
2019-01-03T09:03:18.698Z,98980.95
2019-01-03T09:06:17.470Z,98985.16
2019-01-03T09:09:05.712Z,98984.32
2019-01-03T09:11:52.310Z,98980.80
2019-01-03T09:14:38.774Z,98975.08
2019-01-03T09:17:28.807Z,98982.13
2019-01-03T09:20:27.368Z,98990.13
2019-01-03T09:23:27.603Z,98986.45
2019-01-03T09:26:16.563Z,98979.11
2019-01-03T09:29:04.757Z,98975.61
2019-01-03T09:32:13.039Z,98978.27
2019-01-03T09:34:59.390Z,98972.91
2019-01-03T09:37:47.364Z,98973.41
2019-01-03T09:40:48.167Z,98970.06
2019-01-03T09:43:47.902Z,98969.84
2019-01-03T09:46:19.061Z,98961.07
2019-01-03T09:48:51.640Z,98961.53
2019-01-03T09:51:23.024Z,98958.97
2019-01-03T09:53:54.203Z,98957.08
2019-01-03T09:56:25.275Z,98947.05
2019-01-03T09:58:56.360Z,98958.70
2019-01-03T10:01:27.452Z,98952.95
2019-01-03T10:03:59.142Z,98956.19
2019-01-03T10:06:30.506Z,98940.41
2019-01-03T10:09:02.199Z,98933.61
2019-01-03T10:11:33.294Z,98930.95
2019-01-03T10:14:04.174Z,98926.09
2019-01-03T10:16:35.305Z,98929.70
2019-01-03T10:19:06.959Z,98929.42
2019-01-03T10:21:38.329Z,98928.96
2019-01-03T10:24:09.966Z,98935.88
2019-01-03T10:26:41.665Z,98930.16
2019-01-03T10:29:13.347Z,98924.53
2019-01-03T10:31:44.754Z,98923.52
2019-01-03T10:34:16.132Z,98921.44
2019-01-03T10:36:47.529Z,98918.05
2019-01-03T10:39:18.962Z,98913.55
2019-01-03T10:41:50.407Z,98906.00
2019-01-03T10:44:22.085Z,98909.27
2019-01-03T10:46:53.796Z,98913.31
2019-01-03T10:49:25.438Z,98906.67
2019-01-03T10:51:57.071Z,98911.50
2019-01-03T10:54:28.455Z,98906.56
2019-01-03T10:56:59.573Z,98898.06
2019-01-03T10:59:30.954Z,98900.86
2019-01-03T11:02:02.652Z,98884.78
2019-01-03T11:04:34.028Z,98883.32
2019-01-03T11:07:04.836Z,98882.30
2019-01-03T11:09:35.992Z,98885.45
2019-01-03T11:12:07.371Z,98884.41
2019-01-03T11:14:39.020Z,98884.76
2019-01-03T11:17:10.409Z,98882.89
2019-01-03T11:19:42.112Z,98880.66
2019-01-03T11:22:13.776Z,98872.66
2019-01-03T11:24:45.216Z,98876.05
2019-01-03T11:27:16.624Z,98883.59
2019-01-03T11:29:48.267Z,98876.73
2019-01-03T11:32:19.664Z,98873.98
2019-01-03T11:34:51.046Z,98869.95
2019-01-03T11:37:22.445Z,98866.33
2019-01-03T11:39:54.085Z,98869.45
2019-01-03T11:42:25.795Z,98867.34
2019-01-03T11:44:57.505Z,98864.82
2019-01-03T11:47:29.175Z,98861.73
2019-01-03T11:50:00.875Z,98862.64
2019-01-03T11:52:32.506Z,98854.98
2019-01-03T11:55:04.148Z,98858.72
2019-01-03T11:57:35.566Z,98850.14
2019-01-03T12:00:07.594Z,98846.88
2019-01-03T12:02:39.238Z,98850.17
2019-01-03T12:05:10.796Z,98858.02
2019-01-03T12:07:42.435Z,98851.81
2019-01-03T12:10:13.922Z,98845.17
2019-01-03T12:12:45.889Z,98849.15
2019-01-03T12:15:16.984Z,98850.05
2019-01-03T12:17:48.628Z,98842.09
2019-01-03T12:20:20.024Z,98841.54
2019-01-03T12:22:50.859Z,98836.25
2019-01-03T12:25:21.729Z,98834.56
2019-01-03T12:27:53.119Z,98831.48
2019-01-03T12:30:24.778Z,98835.61
2019-01-03T12:32:55.896Z,98823.39
2019-01-03T12:35:27.311Z,98820.25
2019-01-03T12:37:58.695Z,98816.73
2019-01-03T12:40:30.384Z,98817.27
2019-01-03T12:43:02.006Z,98819.20
2019-01-03T12:45:33.378Z,98814.17
2019-01-03T12:48:05.048Z,98816.86
2019-01-03T12:50:36.156Z,98817.25
2019-01-03T12:53:07.584Z,98807.55
2019-01-03T12:55:38.679Z,98814.70
2019-01-03T12:58:09.816Z,98802.64
2019-01-03T13:00:41.176Z,98795.68
2019-01-03T13:03:12.832Z,98790.04
2019-01-03T13:05:43.917Z,98784.22
2019-01-03T13:08:15.568Z,98789.40
2019-01-03T13:10:46.682Z,98791.13
2019-01-03T13:13:18.039Z,98794.47
2019-01-03T13:15:49.414Z,98800.64
2019-01-03T13:18:20.546Z,98800.28
2019-01-03T13:20:51.900Z,98796.61
2019-01-03T13:23:23.543Z,98798.48
2019-01-03T13:25:54.986Z,98796.74
2019-01-03T13:28:26.617Z,98804.19
2019-01-03T13:30:58.254Z,98808.77
2019-01-03T13:33:29.376Z,98804.08
2019-01-03T13:36:00.739Z,98802.22
2019-01-03T13:38:31.855Z,98802.25
2019-01-03T13:41:03.308Z,98799.09
2019-01-03T13:43:34.398Z,98799.69
2019-01-03T13:46:06.035Z,98792.02
2019-01-03T13:48:37.742Z,98799.50
2019-01-03T13:51:09.091Z,98793.45
2019-01-03T13:53:40.734Z,98791.70
2019-01-03T13:56:11.880Z,98802.71
2019-01-03T13:58:43.517Z,98802.47
2019-01-03T14:01:15.156Z,98803.87
2019-01-03T14:03:46.309Z,98806.33
2019-01-03T14:06:17.971Z,98801.94
2019-01-03T14:08:49.615Z,98804.20
2019-01-03T14:11:20.988Z,98802.97
2019-01-03T14:13:52.132Z,98800.23
2019-01-03T14:16:23.546Z,98806.17
2019-01-03T14:18:54.931Z,98800.19
2019-01-03T14:21:26.596Z,98804.29
2019-01-03T14:23:57.705Z,98805.81
2019-01-03T14:26:29.110Z,98813.78
2019-01-03T14:29:00.877Z,98808.86
2019-01-03T14:31:31.710Z,98805.21
2019-01-03T14:34:03.118Z,98804.84
2019-01-03T14:36:34.291Z,98809.41
2019-01-03T14:39:06.723Z,98808.09
2019-01-03T14:41:38.401Z,98809.77
2019-01-03T14:44:09.777Z,98810.78
2019-01-03T14:46:40.919Z,98807.94
2019-01-03T14:49:13.169Z,98797.32
2019-01-03T14:51:44.550Z,98798.20
2019-01-03T14:54:15.627Z,98799.63
2019-01-03T14:56:46.731Z,98805.84
2019-01-03T14:59:18.395Z,98804.85
2019-01-03T15:01:49.493Z,98797.77
2019-01-03T15:04:21.142Z,98787.45
2019-01-03T15:06:52.810Z,98796.77
2019-01-03T15:09:24.501Z,98789.47
2019-01-03T15:11:56.232Z,98797.55
2019-01-03T15:14:27.347Z,98795.27
2019-01-03T15:16:59.240Z,98792.51
2019-01-03T15:19:30.766Z,98784.19
2019-01-03T15:22:02.178Z,98777.66
2019-01-03T15:24:33.537Z,98782.47
2019-01-03T15:27:05.212Z,98789.23
2019-01-03T15:29:36.318Z,98799.38
2019-01-03T15:32:07.967Z,98793.69
2019-01-03T15:34:39.365Z,98786.23
2019-01-03T15:37:10.724Z,98780.13
2019-01-03T15:39:42.366Z,98773.45
2019-01-03T15:42:13.473Z,98774.13
2019-01-03T15:44:44.851Z,98781.48
2019-01-03T15:47:16.522Z,98786.36
2019-01-03T15:49:47.916Z,98790.32
2019-01-03T15:52:19.019Z,98794.45
2019-01-03T15:54:50.402Z,98802.02
2019-01-03T15:57:22.069Z,98802.47
2019-01-03T15:59:53.444Z,98813.19
2019-01-03T16:02:24.541Z,98814.95
2019-01-03T16:04:56.268Z,98805.72
2019-01-03T16:07:27.696Z,98804.75
2019-01-03T16:09:59.062Z,98804.14
2019-01-03T16:12:30.776Z,98808.59
2019-01-03T16:15:02.170Z,98807.20
2019-01-03T16:17:33.283Z,98802.31
2019-01-03T16:20:04.512Z,98810.31
2019-01-03T16:22:35.873Z,98806.42
2019-01-03T16:25:06.587Z,98801.37
2019-01-03T16:27:37.734Z,98805.10
2019-01-03T16:30:10.292Z,98805.04
2019-01-03T16:32:41.423Z,98791.75
2019-01-03T16:35:12.811Z,98796.67
2019-01-03T16:37:44.170Z,98799.67
2019-01-03T16:40:15.304Z,98800.41
2019-01-03T16:42:46.667Z,98801.80
2019-01-03T16:45:18.041Z,98798.92
2019-01-03T16:47:49.452Z,98792.68
2019-01-03T16:50:20.344Z,98796.00
2019-01-03T16:52:51.768Z,98800.47
2019-01-03T16:55:23.435Z,98799.09
2019-01-03T16:57:54.802Z,98802.59
2019-01-03T17:00:26.176Z,98795.16
2019-01-03T17:02:57.574Z,98798.55
2019-01-03T17:05:29.055Z,98789.40
2019-01-03T17:08:00.719Z,98791.69
2019-01-03T17:10:32.150Z,98789.40
2019-01-03T17:13:03.521Z,98787.20
2019-01-03T17:15:34.895Z,98784.79
2019-01-03T17:18:06.312Z,98783.19
2019-01-03T17:20:37.697Z,98780.63
2019-01-03T17:23:08.767Z,98782.70
2019-01-03T17:25:40.160Z,98780.83
2019-01-03T17:28:11.254Z,98783.52
2019-01-03T17:30:42.341Z,98784.11
2019-01-03T17:33:14.019Z,98790.83
2019-01-03T17:35:45.658Z,98784.39
2019-01-03T17:38:17.068Z,98782.49
2019-01-03T17:40:48.437Z,98789.09
2019-01-03T17:43:20.130Z,98787.00
2019-01-03T17:45:51.521Z,98786.65
2019-01-03T17:48:22.946Z,98784.23
2019-01-03T17:50:54.624Z,98783.87
2019-01-03T17:53:26.461Z,98781.47
2019-01-03T17:55:58.075Z,98783.81
2019-01-03T17:58:29.748Z,98790.73
2019-01-03T18:01:00.984Z,98788.11
2019-01-03T18:03:33.045Z,98789.05
2019-01-03T18:06:03.613Z,98792.75
2019-01-03T18:08:35.280Z,98796.80
2019-01-03T18:11:06.942Z,98796.15
2019-01-03T18:13:38.452Z,98802.20
2019-01-03T18:16:09.823Z,98810.87
2019-01-03T18:18:41.235Z,98821.36
2019-01-03T18:21:12.640Z,98826.56
2019-01-03T18:23:44.283Z,98834.69
2019-01-03T18:26:15.748Z,98837.60
2019-01-03T18:28:46.842Z,98843.41
2019-01-03T18:31:18.237Z,98843.77
2019-01-03T18:33:49.382Z,98849.08
2019-01-03T18:36:20.479Z,98858.00
2019-01-03T18:38:51.876Z,98853.78
2019-01-03T18:41:23.631Z,98844.09
2019-01-03T18:43:55.030Z,98849.03
2019-01-03T18:46:26.729Z,98855.09
2019-01-03T18:48:58.445Z,98852.95
2019-01-03T18:51:29.855Z,98853.68
2019-01-03T18:54:01.493Z,98851.63
2019-01-03T18:56:33.193Z,98848.88
2019-01-03T18:59:04.582Z,98850.56
2019-01-03T19:01:35.708Z,98852.05
2019-01-03T19:04:07.388Z,98844.09
2019-01-03T19:06:38.501Z,98846.55
2019-01-03T19:09:09.866Z,98844.78
2019-01-03T19:11:41.540Z,98843.77
2019-01-03T19:14:12.949Z,98848.67
2019-01-03T19:16:44.335Z,98853.38
2019-01-03T19:19:16.001Z,98850.95
2019-01-03T19:21:47.085Z,98850.13
2019-01-03T19:24:18.190Z,98839.79
2019-01-03T19:26:49.878Z,98842.92
2019-01-03T19:29:21.593Z,98848.06
2019-01-03T19:31:53.020Z,98846.83
2019-01-03T19:34:24.757Z,98839.66
2019-01-03T19:36:55.855Z,98832.94
2019-01-03T19:39:27.264Z,98832.18
2019-01-03T19:41:58.628Z,98831.27
2019-01-03T19:44:29.750Z,98844.42
2019-01-03T19:47:00.870Z,98852.75
2019-01-03T19:49:32.519Z,98850.78
2019-01-03T19:52:04.180Z,98851.26
2019-01-03T19:54:35.821Z,98852.20
2019-01-03T19:57:07.788Z,98853.69
2019-01-03T19:59:39.196Z,98849.42
2019-01-03T20:02:10.839Z,98851.92
2019-01-03T20:04:42.215Z,98848.67
2019-01-03T20:07:13.331Z,98849.87
2019-01-03T20:09:45.003Z,98852.61
2019-01-03T20:12:16.115Z,98851.16
2019-01-03T20:14:47.548Z,98847.31
2019-01-03T20:17:18.923Z,98839.52
2019-01-03T20:19:49.705Z,98840.61
2019-01-03T20:22:21.133Z,98833.16
2019-01-03T20:24:52.228Z,98830.86
2019-01-03T20:27:23.417Z,98829.50
2019-01-03T20:29:55.087Z,98833.59
2019-01-03T20:32:26.256Z,98835.58
2019-01-03T20:34:57.604Z,98829.06
2019-01-03T20:37:29.002Z,98835.41
2019-01-03T20:40:00.360Z,98838.50
2019-01-03T20:42:31.763Z,98834.94
2019-01-03T20:45:03.208Z,98838.91
2019-01-03T20:47:34.859Z,98839.52
2019-01-03T20:50:05.821Z,98840.69
2019-01-03T20:52:37.232Z,98840.92
2019-01-03T20:55:08.170Z,98843.58
2019-01-03T20:57:39.346Z,98849.48
2019-01-03T21:00:13.777Z,98841.61
2019-01-03T21:02:45.499Z,98846.19
2019-01-03T21:05:17.151Z,98841.73
2019-01-03T21:07:48.554Z,98840.44
2019-01-03T21:10:20.196Z,98831.54
2019-01-03T21:12:51.557Z,98833.59
2019-01-03T21:15:23.044Z,98833.61
2019-01-03T21:17:53.891Z,98831.04
2019-01-03T21:20:24.736Z,98834.42
2019-01-03T21:22:56.409Z,98827.55
2019-01-03T21:25:28.076Z,98817.34
2019-01-03T21:27:59.152Z,98809.83
2019-01-03T21:30:30.037Z,98808.98
2019-01-03T21:33:01.726Z,98824.20
2019-01-03T21:35:33.165Z,98845.41
2019-01-03T21:38:04.307Z,98850.56
2019-01-03T21:40:35.131Z,98856.38
2019-01-03T21:43:05.704Z,98864.51
2019-01-03T21:45:37.373Z,98864.66
2019-01-03T21:48:09.073Z,98866.31
2019-01-03T21:50:40.756Z,98854.72
2019-01-03T21:53:11.903Z,98854.39
2019-01-03T21:55:43.611Z,98857.83
2019-01-03T21:58:14.997Z,98856.69
2019-01-03T22:00:46.737Z,98852.94
2019-01-03T22:03:17.869Z,98852.44
2019-01-03T22:05:48.996Z,98850.87
2019-01-03T22:08:20.418Z,98846.98
2019-01-03T22:10:51.806Z,98853.88
2019-01-03T22:13:23.223Z,98847.88
2019-01-03T22:15:54.396Z,98856.69
2019-01-03T22:18:26.051Z,98849.31
2019-01-03T22:20:57.440Z,98844.02
2019-01-03T22:23:28.060Z,98848.35
2019-01-03T22:25:59.158Z,98839.52
2019-01-03T22:28:30.276Z,98850.45
2019-01-03T22:31:01.689Z,98849.50
2019-01-03T22:33:33.068Z,98850.55
2019-01-03T22:36:04.454Z,98861.08
2019-01-03T22:38:36.138Z,98857.63
2019-01-03T22:41:07.813Z,98858.52
2019-01-03T22:43:39.318Z,98856.09
2019-01-03T22:46:10.740Z,98859.45
2019-01-03T22:48:42.524Z,98860.27
2019-01-03T22:51:19.945Z,98855.94
2019-01-03T22:53:47.060Z,98860.52
2019-01-03T22:56:18.457Z,98862.29
2019-01-03T22:58:49.838Z,98863.04
2019-01-03T23:01:22.128Z,98856.56
2019-01-03T23:03:53.728Z,98852.52
2019-01-03T23:06:25.371Z,98848.28
2019-01-03T23:08:59.892Z,98855.70
2019-01-03T23:11:31.271Z,98855.59
2019-01-03T23:14:02.959Z,98856.45
2019-01-03T23:16:34.364Z,98858.56
2019-01-03T23:19:06.053Z,98851.97
2019-01-03T23:21:37.426Z,98854.22
2019-01-03T23:24:08.821Z,98849.58
2019-01-03T23:26:40.502Z,98853.91
2019-01-03T23:29:11.880Z,98855.67
2019-01-03T23:31:43.052Z,98859.20
2019-01-03T23:34:14.734Z,98864.34
2019-01-03T23:36:46.125Z,98865.18
2019-01-03T23:39:17.536Z,98866.03
2019-01-03T23:41:49.265Z,98863.58
2019-01-03T23:44:20.917Z,98861.77
2019-01-03T23:46:52.148Z,98862.47
2019-01-03T23:49:23.799Z,98857.87
2019-01-03T23:51:55.195Z,98857.86
2019-01-03T23:54:26.899Z,98859.07
2019-01-03T23:56:58.592Z,98867.71
2019-01-03T23:59:30.064Z,98873.69
